Date,TemperatureHighF,TemperatureAvgF,TemperatureLowF,DewpointHighF,DewpointAvgF,DewpointLowF,HumidityHigh,HumidityAvg,HumidityLow,PressureMaxIn,PressureMinIn,WindSpeedMaxMPH,WindSpeedAvgMPH,GustSpeedMaxMPH,PrecipitationSumIn
2012-6-18,80.5,80.2,79.9,74.1,73.0,71.9,82,79,76,30.02,29.99,15,13,27,0.00
2012-6-19,82.9,80.3,78.0,76.2,73.2,70.5,87,79,73,30.08,29.99,19,12,22,0.00
2012-6-20,82.0,80.0,77.8,75.8,72.8,70.6,89,79,69,30.07,29.98,21,14,27,0.10
2012-6-21,85.1,81.1,78.5,76.5,74.7,70.7,89,81,64,30.00,29.89,18,10,21,0.00
2012-6-22,86.2,82.1,80.6,78.9,76.7,75.4,88,84,72,29.92,29.82,21,11,24,0.00
2012-6-23,83.9,81.6,79.4,78.2,76.9,74.4,93,86,80,29.88,29.81,22,15,27,0.00
2012-6-24,85.2,81.9,79.3,77.2,75.8,74.9,90,82,72,29.85,29.70,38,28,43,0.01
2012-6-25,88.7,82.7,76.9,79.5,74.7,71.9,87,77,64,29.71,29.59,35,23,44,0.00
2012-6-26,90.2,85.3,81.3,81.2,77.0,74.3,86,77,66,29.75,29.61,20,10,25,0.00
2012-6-27,85.6,82.4,80.8,82.2,74.2,66.6,94,77,58,30.00,29.75,22,11,24,0.00
2012-6-28,88.8,83.6,79.9,73.6,70.7,66.7,76,66,51,30.10,30.00,12,7,21,0.00
2012-6-29,87.5,83.1,80.5,80.4,76.6,72.7,89,81,74,30.04,29.93,14,9,21,0.00
2012-6-30,93.3,84.6,80.9,80.0,76.8,72.5,89,78,62,29.97,29.90,12,8,21,0.00
2012-7-1,93.3,86.4,81.9,81.1,78.9,76.4,91,79,64,30.06,29.94,12,9,21,0.00
2012-7-2,93.6,84.7,78.0,80.6,77.2,72.2,90,78,62,30.11,29.97,32,6,38,0.00
2012-7-3,90.5,84.9,81.2,80.2,77.6,74.0,91,79,67,30.05,29.96,25,3,29,0.00
2012-7-4,88.0,82.8,80.1,81.4,77.2,73.7,93,84,68,30.08,29.98,19,3,21,0.00
2012-7-5,93.2,86.3,81.8,80.2,77.2,74.6,86,75,60,30.07,29.95,11,6,13,0.00
2012-7-6,86.5,82.1,74.2,79.1,76.0,71.0,94,82,75,30.07,29.95,33,9,40,0.13
2012-7-7,86.0,82.6,80.2,77.9,76.3,74.2,87,81,74,30.06,29.98,16,7,19,0.00
2012-7-8,87.8,83.3,76.5,79.8,76.9,73.3,91,81,73,30.08,29.99,13,7,16,0.52
2012-7-9,86.6,81.5,77.9,78.2,76.2,74.4,90,84,75,30.03,29.95,12,5,14,0.03
2012-7-10,81.6,81.1,80.6,77.0,76.3,75.7,86,85,85,29.98,29.95,8,6,14,0.00
2012-8-18,77.2,77.2,77.2,74.7,74.7,74.7,92,92,92,29.90,29.90,0,0,14,0.00
2012-8-19,82.3,78.1,72.5,78.7,75.0,70.7,97,90,81,29.95,29.85,21,7,27,1.42
2012-8-20,79.7,77.6,74.8,75.9,73.8,71.9,94,88,83,29.92,29.86,13,5,17,0.01
2012-8-21,84.8,78.7,74.5,76.4,74.3,72.0,95,87,75,29.99,29.89,18,8,20,0.05
2012-8-22,85.0,79.9,77.6,76.1,73.9,70.5,90,82,64,30.05,29.97,18,8,20,0.00
2012-8-23,86.2,81.8,78.5,76.4,73.2,65.5,88,75,56,30.08,30.01,14,5,14,0.00
2012-8-24,84.8,81.7,79.3,77.6,75.0,72.8,88,80,73,30.07,29.98,13,5,18,0.00
2012-8-25,84.3,82.1,80.0,77.0,75.3,73.2,87,80,72,30.05,29.98,19,10,28,0.00
2012-8-26,86.9,82.8,79.8,77.2,75.0,71.7,88,78,63,30.08,29.96,22,10,22,0.00
2012-8-27,85.1,81.9,79.2,74.3,72.3,70.9,80,73,64,29.97,29.88,31,24,34,0.00
2012-8-29,82.8,81.0,77.5,79.0,77.7,75.0,95,90,88,29.70,29.62,0,0,18,2.41
2012-8-30,83.5,82.3,80.6,79.8,78.8,77.7,92,89,86,30.02,29.70,0,0,0,0.09
2012-8-31,84.6,81.8,76.3,80.8,78.4,74.1,96,89,82,30.16,30.02,0,0,0,0.40
2012-9-1,85.9,82.3,79.6,79.7,78.4,77.1,95,88,79,30.18,30.08,11,0,13,0.00
2012-9-2,88.4,83.0,80.1,81.8,78.5,77.0,92,86,78,30.10,29.97,13,8,15,0.00
2012-9-3,87.2,83.7,81.4,80.5,79.3,78.2,93,87,78,30.05,29.93,14,10,19,0.00
2012-9-4,87.1,82.9,75.9,80.6,78.5,73.1,93,87,76,29.97,29.84,21,12,25,0.04
2012-9-5,83.9,79.6,74.3,78.9,76.6,73.4,98,90,82,29.87,29.81,21,10,27,2.55
2012-9-6,83.3,81.5,79.3,78.7,77.3,75.9,94,87,79,29.94,29.83,19,11,23,0.00
2012-9-7,83.6,81.8,80.2,78.1,77.0,76.0,90,86,81,29.94,29.82,20,11,24,0.00
2012-9-8,88.6,82.4,79.6,80.8,77.5,74.5,93,85,74,29.89,29.76,16,6,21,0.03
2012-9-9,83.4,77.2,73.2,76.0,68.5,61.8,90,75,50,30.01,29.88,23,13,27,0.00
2012-9-10,82.9,77.9,72.9,70.6,66.4,61.8,85,68,53,30.08,30.01,23,12,26,0.00
2012-9-11,82.4,79.1,76.0,73.3,70.4,66.4,83,75,63,30.14,30.04,19,11,21,0.00
2012-9-12,81.0,77.7,73.3,74.7,72.7,70.7,95,85,73,30.16,30.06,23,14,26,0.94
2012-9-13,81.1,78.6,75.2,75.7,73.1,70.4,92,83,75,30.16,30.08,21,14,23,0.00
2012-9-14,83.3,78.6,74.5,74.8,72.3,69.7,90,81,73,30.14,30.05,21,12,23,0.00
2012-9-15,81.3,79.0,76.0,76.1,73.4,70.8,89,83,75,30.11,30.02,20,12,22,0.00
2012-9-16,82.4,79.6,77.2,76.8,75.6,73.3,93,88,81,30.06,29.94,17,10,21,0.15
2012-9-17,81.7,78.8,74.5,77.8,75.4,72.0,95,90,86,29.97,29.74,21,13,28,1.34
2012-9-18,83.6,79.2,74.2,77.4,72.6,68.6,92,81,65,29.97,29.73,23,12,28,0.02
2012-9-19,78.4,73.5,68.5,71.1,66.4,63.8,92,79,65,30.08,29.95,26,15,31,0.00
2012-9-20,81.7,75.0,71.5,69.7,64.4,61.5,78,70,59,30.08,29.99,18,9,20,0.00
2012-9-21,83.9,77.9,74.6,73.8,70.6,67.2,88,78,64,30.03,29.96,16,7,18,0.00
2012-9-22,84.4,79.2,76.6,75.2,73.6,72.0,94,83,70,30.09,29.99,11,3,15,0.00
2012-9-23,83.9,79.4,76.0,76.4,71.5,66.2,93,77,61,30.14,30.07,16,5,18,0.00
2012-9-24,80.6,77.7,73.7,75.3,68.3,63.5,91,73,60,30.17,30.06,20,10,23,0.00
2012-9-25,79.8,76.5,73.4,68.8,64.5,59.4,76,67,50,30.14,30.06,16,9,21,0.00
2012-9-26,82.2,77.9,74.5,75.8,71.8,66.7,89,82,69,30.12,30.05,20,11,21,0.00
2012-9-27,83.8,79.3,76.6,75.2,73.8,72.6,94,84,73,30.14,30.03,16,8,17,0.00
2012-9-28,83.8,79.6,76.8,76.6,74.9,73.3,91,85,78,30.08,29.97,10,4,14,0.00
2012-9-29,80.3,77.3,72.4,76.8,74.1,71.2,97,90,85,30.00,29.88,15,6,17,0.90
2012-9-30,81.1,77.1,72.6,78.0,74.6,70.3,97,92,87,29.88,29.62,26,13,31,0.32
2012-10-1,80.5,74.5,67.4,77.5,69.6,63.4,94,85,76,29.73,29.53,27,16,35,0.82
2012-10-2,77.9,70.9,66.1,65.4,63.6,61.8,90,78,62,30.00,29.73,15,8,18,0.51
2012-10-3,76.4,73.3,70.1,68.2,66.6,62.2,88,80,71,30.12,29.99,14,8,17,0.25
2012-10-4,80.7,75.1,70.7,73.0,69.8,66.7,95,84,66,30.21,30.12,17,10,18,0.03
2012-10-5,80.3,76.0,71.4,74.7,72.1,69.6,94,88,82,30.15,29.99,17,7,18,0.00
2012-10-6,84.0,77.6,72.7,74.4,70.7,62.5,94,80,51,30.02,29.91,20,4,22,0.00
2012-10-7,76.6,68.4,62.5,72.0,64.5,60.4,95,87,77,30.07,29.98,26,19,30,0.00
2012-10-8,72.7,65.8,59.6,63.6,59.3,54.5,91,80,69,30.12,30.02,30,20,32,0.00
2012-10-9,72.0,66.3,61.9,63.1,59.7,56.2,88,80,71,30.13,30.02,27,11,28,0.00
2012-10-10,79.2,72.6,66.9,71.6,66.2,62.5,90,81,64,30.16,30.06,12,4,14,0.00
2012-10-11,78.2,74.0,70.6,69.9,67.4,65.2,90,80,66,30.23,30.13,15,7,16,0.00
2012-10-12,82.0,74.7,72.2,70.7,68.4,63.5,92,81,55,30.27,30.16,15,5,16,0.00
2012-10-13,79.5,75.8,71.2,73.3,70.5,67.0,94,84,75,30.23,30.13,18,10,22,0.00
2012-10-14,87.9,79.5,77.6,76.8,72.3,68.4,88,79,67,30.14,29.99,19,10,25,0.00
2012-10-15,83.4,77.5,73.6,74.6,70.8,62.7,93,80,57,30.00,29.88,15,7,17,0.00
2012-10-16,73.6,71.1,67.8,64.4,57.9,52.0,84,64,47,29.99,29.85,22,10,24,0.00
2012-10-17,78.5,74.6,70.6,69.1,63.0,53.5,81,68,51,29.90,29.78,19,8,21,0.00
2012-10-18,78.0,74.7,71.2,75.2,69.3,57.5,95,84,56,29.88,29.75,20,12,30,0.08
2012-10-19,78.2,72.6,66.0,59.2,52.7,42.7,66,51,30,29.95,29.84,16,9,19,0.00
2012-10-20,76.0,70.1,65.1,58.2,51.5,46.1,68,52,42,30.00,29.90,14,3,16,0.00
2012-10-21,75.8,70.4,67.7,65.7,61.1,56.0,88,73,55,30.12,29.99,15,4,16,0.00
2012-10-22,75.9,72.2,68.8,67.8,63.9,61.5,84,75,67,30.14,30.06,16,12,19,0.00
2012-10-23,76.6,73.1,69.4,70.7,67.4,63.6,91,82,71,30.10,30.02,18,12,22,0.00
2012-10-24,77.5,73.7,70.4,71.1,68.4,65.2,92,84,74,30.09,30.00,18,10,19,0.00
2012-10-25,77.3,73.9,70.6,72.3,69.6,65.4,92,87,78,30.01,29.93,17,9,19,0.00
2012-10-26,79.4,74.0,70.8,72.3,69.3,66.6,92,85,77,29.98,29.88,17,6,18,0.00
2012-10-27,73.6,60.3,53.3,67.0,56.1,48.9,92,86,73,29.96,29.89,24,12,30,0.00
2012-10-28,65.5,56.9,49.2,50.4,46.2,42.2,88,69,45,30.07,29.92,21,11,25,0.00
2012-10-29,62.2,54.2,46.9,43.7,40.6,34.9,82,62,37,30.12,29.98,19,11,25,0.00
2012-10-30,65.7,56.7,46.9,52.8,42.5,37.4,73,60,41,30.08,29.95,15,11,18,0.00
2012-10-31,72.0,65.4,57.1,64.9,56.7,48.6,84,74,64,30.07,29.95,14,10,20,0.00
2012-11-1,70.8,65.8,61.5,64.4,57.5,48.3,92,76,46,30.09,29.97,17,7,18,0.00
2012-11-2,74.3,68.8,62.2,69.6,65.5,59.5,94,89,81,30.09,30.00,14,6,17,0.00
2012-11-3,78.6,71.4,65.9,70.1,67.9,64.7,97,89,74,30.14,30.05,11,7,14,0.01
2012-11-4,79.6,69.7,65.0,70.0,66.2,61.3,97,89,69,30.12,30.02,12,5,16,0.02
2012-11-5,68.7,64.3,59.8,64.7,56.8,51.6,92,77,65,30.08,29.88,22,10,24,0.03
2012-11-6,68.8,57.8,52.3,64.8,52.3,48.1,95,82,64,30.05,29.87,18,9,22,0.00
2012-11-7,67.0,59.6,53.2,54.3,48.3,41.4,88,68,42,30.12,29.96,30,9,34,0.00
2012-11-8,61.3,54.8,49.8,51.6,46.5,43.6,85,74,55,30.26,30.12,25,8,30,0.00
2012-11-9,66.7,61.5,56.1,58.6,53.7,49.3,83,76,67,30.29,30.20,15,8,15,0.00
2012-11-10,70.6,66.0,60.6,63.6,58.6,53.6,89,78,61,30.29,30.21,30,11,31,0.00
2012-11-11,73.7,71.7,69.5,66.4,63.9,59.5,84,77,68,30.23,30.16,27,20,30,0.00
2012-11-12,72.7,65.4,53.7,69.3,61.7,49.3,95,88,80,30.30,30.10,31,17,34,0.11
2012-11-13,58.1,52.6,46.5,49.9,43.4,38.6,87,72,53,30.34,30.22,36,24,44,0.00
2012-11-14,64.1,53.7,45.9,51.9,46.0,40.1,86,75,59,30.30,30.19,28,10,30,0.00
2012-11-15,60.5,54.6,49.7,53.9,50.7,48.0,97,87,75,30.27,30.17,21,13,22,0.00
2012-11-16,56.6,53.4,50.0,52.8,49.4,47.2,91,86,83,30.29,30.21,26,13,31,0.00
2012-11-17,55.0,55.0,55.0,52.1,52.1,52.1,90,90,90,30.27,30.27,2,2,31,0.00